Messwerte Mwanza

Temperatur

Temperatur
°C
1603832400 0.00 0.00 24
1603836000 1.00 1.00
1603839600 2.00 2.00 23
1603843200 3.00 3.00 22
1603846800 4.00 4.00 22
1603850400 5.00 5.00
1603854000 6.00 6.00 21
1603857600 7.00 7.00
1603861200 8.00 8.00 22
1603864800 9.00 9.00 25
1603868400 10.00 10.00 27
1603872000 11.00 11.00 27
1603875600 12.00 12.00 29
1603879200 13.00 13.00 29
1603882800 14.00 14.00
1603886400 15.00 15.00 29
1603890000 16.00 16.00
1603893600 17.00 17.00 28
1603897200 18.00 18.00 27
1603900800 19.00 19.00 22
1603904400 20.00 20.00 22
1603908000 21.00 21.00 22
1603911600 22.00 22.00 22
1603915200 23.00 23.00 22

Aktuellste Messwerte

Wettercharakter
Wetter: Wolkenfelder, kaum Regen
Temperatur
22 °C
Feuchtigkeit
90 %
Wind
20 km/hWindrichtung: Ost
Luftdruck
1015 hPa
Messzeit: 28. Oktober 2020, 23.00Datenquelle: METAR

Weitere Messstationen in der Nähe

Messstation Temperatur Entfernung
Musoma - 145 km
Bukoba - 176 km
Entebbe - 285 km
Tabora - 290 km
Kigali - 316 km
Kisumu - 333 km
Arusha - 422 km

Wind

Windrichtung Böen Mittelwind
° km/h km/h
1603832400 0.00 23.00 - 0.00 0
1603836000 1.00 0.00 - 1.00
1603839600 2.00 1.00 - 2.00 0
1603843200 3.00 2.00 - 3.00 0
1603846800 4.00 3.00 - 4.00 0
1603850400 5.00 4.00 - 5.00
1603854000 6.00 5.00 - 6.00 0
1603857600 7.00 6.00 - 7.00
1603861200 8.00 7.00 - 8.00 120° 10
1603864800 9.00 8.00 - 9.00 120° 10
1603868400 10.00 9.00 - 10.00 100° 20
1603872000 11.00 10.00 - 11.00 110° 25
1603875600 12.00 11.00 - 12.00 120° 25
1603879200 13.00 12.00 - 13.00 150° 15
1603882800 14.00 13.00 - 14.00
1603886400 15.00 14.00 - 15.00 20° 20
1603890000 16.00 15.00 - 16.00
1603893600 17.00 16.00 - 17.00 330° 15
1603897200 18.00 17.00 - 18.00 110° 20
1603900800 19.00 18.00 - 19.00 210° 10
1603904400 20.00 19.00 - 20.00 0
1603908000 21.00 20.00 - 21.00 0
1603911600 22.00 21.00 - 22.00 120° 10
1603915200 23.00 22.00 - 23.00 90° 20

Ihre Wetterstation

Fehlt Ihre Wetterstation auf unserem Portal?

Schreiben Sie an network@meteonews.ch